sensor_id;sensor_type;location;lat;lon;timestamp;pressure;altitude;pressure_sealevel;temperature;humidity
74422;BME280;62856;51.446;8.360;2022-09-21T00:02:00;98887.78;;;4.99;100.00
74422;BME280;62856;51.446;8.360;2022-09-21T00:04:25;98873.94;;;4.90;100.00
74422;BME280;62856;51.446;8.360;2022-09-21T00:06:51;98869.97;;;4.81;100.00
74422;BME280;62856;51.446;8.360;2022-09-21T00:09:22;98883.75;;;4.78;100.00
74422;BME280;62856;51.446;8.360;2022-09-21T00:11:56;98878.41;;;4.78;100.00
74422;BME280;62856;51.446;8.360;2022-09-21T00:14:21;98877.84;;;4.76;100.00
74422;BME280;62856;51.446;8.360;2022-09-21T00:16:47;98874.44;;;4.69;100.00
74422;BME280;62856;51.446;8.360;2022-09-21T00:19:12;98882.44;;;4.69;100.00
74422;BME280;62856;51.446;8.360;2022-09-21T00:21:38;98877.44;;;4.61;100.00
74422;BME280;62856;51.446;8.360;2022-09-21T00:24:05;98893.44;;;4.61;100.00
74422;BME280;62856;51.446;8.360;2022-09-21T00:26:31;98894.03;;;4.63;100.00
74422;BME280;62856;51.446;8.360;2022-09-21T00:28:59;98886.84;;;4.93;100.00
74422;BME280;62856;51.446;8.360;2022-09-21T00:31:26;98891.16;;;4.94;100.00
74422;BME280;62856;51.446;8.360;2022-09-21T00:33:52;98880.47;;;4.94;100.00
74422;BME280;62856;51.446;8.360;2022-09-21T00:36:20;98885.53;;;4.84;100.00
74422;BME280;62856;51.446;8.360;2022-09-21T00:38:51;98876.16;;;4.93;100.00
74422;BME280;62856;51.446;8.360;2022-09-21T00:41:17;98892.72;;;4.84;100.00
74422;BME280;62856;51.446;8.360;2022-09-21T00:46:30;98887.31;;;4.90;100.00
74422;BME280;62856;51.446;8.360;2022-09-21T00:48:56;98894.50;;;4.90;100.00
74422;BME280;62856;51.446;8.360;2022-09-21T00:51:22;98894.31;;;4.73;100.00
74422;BME280;62856;51.446;8.360;2022-09-21T00:53:51;98893.19;;;4.81;100.00
74422;BME280;62856;51.446;8.360;2022-09-21T00:56:18;98898.63;;;4.74;100.00
74422;BME280;62856;51.446;8.360;2022-09-21T00:58:47;98886.63;;;4.29;100.00
74422;BME280;62856;51.446;8.360;2022-09-21T01:01:17;98893.03;;;4.28;100.00
74422;BME280;62856;51.446;8.360;2022-09-21T01:03:46;98891.81;;;4.24;100.00
74422;BME280;62856;51.446;8.360;2022-09-21T01:06:12;98901.03;;;4.28;100.00
74422;BME280;62856;51.446;8.360;2022-09-21T01:08:40;98904.44;;;4.35;100.00
74422;BME280;62856;51.446;8.360;2022-09-21T01:11:19;98897.31;;;4.29;100.00
74422;BME280;62856;51.446;8.360;2022-09-21T01:14:04;98897.63;;;4.21;100.00
74422;BME280;62856;51.446;8.360;2022-09-21T01:16:47;98903.22;;;4.13;100.00
74422;BME280;62856;51.446;8.360;2022-09-21T01:19:55;98902.44;;;4.12;100.00
74422;BME280;62856;51.446;8.360;2022-09-21T01:31:10;98897.75;;;4.08;100.00
74422;BME280;62856;51.446;8.360;2022-09-21T01:33:47;98910.44;;;4.12;100.00
74422;BME280;62856;51.446;8.360;2022-09-21T01:36:16;98901.53;;;4.18;100.00
74422;BME280;62856;51.446;8.360;2022-09-21T01:38:47;98904.81;;;4.39;100.00
74422;BME280;62856;51.446;8.360;2022-09-21T01:41:16;98905.84;;;4.38;100.00
74422;BME280;62856;51.446;8.360;2022-09-21T01:43:46;98906.28;;;4.35;100.00
74422;BME280;62856;51.446;8.360;2022-09-21T01:46:16;98901.75;;;4.35;100.00
74422;BME280;62856;51.446;8.360;2022-09-21T01:48:46;98897.38;;;4.41;100.00
74422;BME280;62856;51.446;8.360;2022-09-21T01:51:14;98906.06;;;4.36;100.00
74422;BME280;62856;51.446;8.360;2022-09-21T01:53:44;98904.44;;;4.35;100.00
74422;BME280;62856;51.446;8.360;2022-09-21T01:56:19;98911.84;;;4.33;100.00
74422;BME280;62856;51.446;8.360;2022-09-21T01:58:51;98916.66;;;4.25;100.00
74422;BME280;62856;51.446;8.360;2022-09-21T02:01:21;98910.38;;;4.19;100.00
74422;BME280;62856;51.446;8.360;2022-09-21T02:03:51;98908.66;;;4.25;100.00
74422;BME280;62856;51.446;8.360;2022-09-21T02:06:18;98905.25;;;4.18;100.00
74422;BME280;62856;51.446;8.360;2022-09-21T02:08:45;98904.28;;;4.12;100.00
74422;BME280;62856;51.446;8.360;2022-09-21T02:11:11;98913.63;;;4.03;100.00
74422;BME280;62856;51.446;8.360;2022-09-21T02:13:40;98910.94;;;4.03;100.00
74422;BME280;62856;51.446;8.360;2022-09-21T02:24:23;98915.09;;;3.99;100.00
74422;BME280;62856;51.446;8.360;2022-09-21T02:32:30;98910.25;;;3.89;100.00
74422;BME280;62856;51.446;8.360;2022-09-21T02:38:00;98910.31;;;3.83;100.00
74422;BME280;62856;51.446;8.360;2022-09-21T02:40:52;98906.19;;;3.87;100.00
74422;BME280;62856;51.446;8.360;2022-09-21T02:43:23;98908.03;;;3.86;100.00
74422;BME280;62856;51.446;8.360;2022-09-21T02:45:56;98901.97;;;3.97;100.00
74422;BME280;62856;51.446;8.360;2022-09-21T02:48:31;98903.22;;;4.13;100.00
74422;BME280;62856;51.446;8.360;2022-09-21T02:51:04;98906.06;;;4.00;100.00
74422;BME280;62856;51.446;8.360;2022-09-21T02:53:34;98907.34;;;3.91;100.00
74422;BME280;62856;51.446;8.360;2022-09-21T02:56:01;98911.22;;;3.95;100.00
74422;BME280;62856;51.446;8.360;2022-09-21T02:58:37;98905.53;;;4.09;100.00
74422;BME280;62856;51.446;8.360;2022-09-21T03:01:04;98911.22;;;3.95;100.00
74422;BME280;62856;51.446;8.360;2022-09-21T03:03:31;98910.47;;;3.88;100.00
74422;BME280;62856;51.446;8.360;2022-09-21T03:05:57;98910.69;;;3.86;100.00
74422;BME280;62856;51.446;8.360;2022-09-21T03:08:23;98905.88;;;3.95;100.00
74422;BME280;62856;51.446;8.360;2022-09-21T03:10:48;98898.22;;;4.05;100.00
74422;BME280;62856;51.446;8.360;2022-09-21T03:13:15;98905.09;;;3.94;100.00
74422;BME280;62856;51.446;8.360;2022-09-21T03:15:41;98906.00;;;3.82;100.00
74422;BME280;62856;51.446;8.360;2022-09-21T03:18:08;98903.25;;;3.70;100.00
74422;BME280;62856;51.446;8.360;2022-09-21T03:20:35;98905.31;;;3.68;100.00
74422;BME280;62856;51.446;8.360;2022-09-21T03:23:01;98906.19;;;3.62;100.00
74422;BME280;62856;51.446;8.360;2022-09-21T03:25:27;98908.25;;;3.60;100.00
74422;BME280;62856;51.446;8.360;2022-09-21T03:27:54;98913.22;;;3.57;100.00
74422;BME280;62856;51.446;8.360;2022-09-21T03:30:28;98914.41;;;3.61;100.00
74422;BME280;62856;51.446;8.360;2022-09-21T03:32:54;98911.25;;;3.70;100.00
74422;BME280;62856;51.446;8.360;2022-09-21T03:35:21;98910.72;;;3.62;100.00
74422;BME280;62856;51.446;8.360;2022-09-21T03:37:48;98919.13;;;3.59;100.00
74422;BME280;62856;51.446;8.360;2022-09-21T03:40:14;98915.78;;;3.70;100.00
74422;BME280;62856;51.446;8.360;2022-09-21T03:42:41;98914.16;;;3.69;100.00
74422;BME280;62856;51.446;8.360;2022-09-21T03:45:08;98918.91;;;3.60;100.00
74422;BME280;62856;51.446;8.360;2022-09-21T03:47:34;98912.94;;;3.65;100.00
74422;BME280;62856;51.446;8.360;2022-09-21T03:50:00;98915.53;;;3.71;100.00
74422;BME280;62856;51.446;8.360;2022-09-21T03:52:25;98917.06;;;3.61;100.00
74422;BME280;62856;51.446;8.360;2022-09-21T03:54:51;98907.63;;;3.65;100.00
74422;BME280;62856;51.446;8.360;2022-09-21T03:57:16;98910.97;;;3.78;100.00
74422;BME280;62856;51.446;8.360;2022-09-21T03:59:41;98908.09;;;3.80;100.00
74422;BME280;62856;51.446;8.360;2022-09-21T04:02:07;98917.22;;;3.66;100.00
74422;BME280;62856;51.446;8.360;2022-09-21T04:04:32;98918.66;;;3.68;100.00
74422;BME280;62856;51.446;8.360;2022-09-21T04:06:58;98916.63;;;3.88;100.00
74422;BME280;62856;51.446;8.360;2022-09-21T04:09:23;98919.34;;;3.82;100.00
74422;BME280;62856;51.446;8.360;2022-09-21T04:11:49;98912.66;;;3.73;100.00
74422;BME280;62856;51.446;8.360;2022-09-21T04:14:14;98917.69;;;3.63;100.00
74422;BME280;62856;51.446;8.360;2022-09-21T04:16:40;98919.69;;;3.67;100.00
74422;BME280;62856;51.446;8.360;2022-09-21T04:19:05;98921.97;;;3.64;100.00
74422;BME280;62856;51.446;8.360;2022-09-21T04:21:31;98921.19;;;3.57;100.00
74422;BME280;62856;51.446;8.360;2022-09-21T04:23:57;98915.03;;;3.38;100.00
74422;BME280;62856;51.446;8.360;2022-09-21T04:26:27;98912.91;;;3.47;100.00
74422;BME280;62856;51.446;8.360;2022-09-21T04:28:54;98913.00;;;3.58;100.00
74422;BME280;62856;51.446;8.360;2022-09-21T04:31:20;98924.75;;;3.51;100.00
74422;BME280;62856;51.446;8.360;2022-09-21T04:33:50;98916.47;;;3.34;100.00
74422;BME280;62856;51.446;8.360;2022-09-21T04:36:16;98921.19;;;3.32;100.00
74422;BME280;62856;51.446;8.360;2022-09-21T04:38:42;98923.25;;;3.30;100.00
74422;BME280;62856;51.446;8.360;2022-09-21T04:41:07;98924.13;;;3.24;100.00
74422;BME280;62856;51.446;8.360;2022-09-21T04:43:33;98928.44;;;3.25;100.00
74422;BME280;62856;51.446;8.360;2022-09-21T04:46:04;98924.56;;;3.21;100.00
74422;BME280;62856;51.446;8.360;2022-09-21T04:48:29;98922.91;;;3.20;100.00
74422;BME280;62856;51.446;8.360;2022-09-21T04:50:54;98931.13;;;3.19;100.00
74422;BME280;62856;51.446;8.360;2022-09-21T04:53:20;98917.81;;;3.19;100.00
74422;BME280;62856;51.446;8.360;2022-09-21T04:55:45;98926.41;;;3.21;100.00
74422;BME280;62856;51.446;8.360;2022-09-21T04:58:11;98935.22;;;3.21;100.00
74422;BME280;62856;51.446;8.360;2022-09-21T05:00:36;98929.91;;;3.14;100.00
74422;BME280;62856;51.446;8.360;2022-09-21T05:03:02;98934.22;;;3.16;100.00
74422;BME280;62856;51.446;8.360;2022-09-21T05:05:27;98925.25;;;3.10;100.00
74422;BME280;62856;51.446;8.360;2022-09-21T05:07:52;98941.81;;;3.12;100.00
74422;BME280;62856;51.446;8.360;2022-09-21T05:10:18;98934.66;;;3.13;100.00
74422;BME280;62856;51.446;8.360;2022-09-21T05:12:43;98941.28;;;3.03;100.00
74422;BME280;62856;51.446;8.360;2022-09-21T05:15:09;98950.66;;;3.13;100.00
74422;BME280;62856;51.446;8.360;2022-09-21T05:17:39;98950.97;;;3.23;100.00
74422;BME280;62856;51.446;8.360;2022-09-21T05:20:05;98952.03;;;3.22;100.00
74422;BME280;62856;51.446;8.360;2022-09-21T05:22:33;98945.09;;;3.14;100.00
74422;BME280;62856;51.446;8.360;2022-09-21T05:24:58;98957.16;;;3.17;100.00
74422;BME280;62856;51.446;8.360;2022-09-21T05:27:23;98955.00;;;3.32;100.00
74422;BME280;62856;51.446;8.360;2022-09-21T05:29:49;98967.50;;;3.31;100.00
74422;BME280;62856;51.446;8.360;2022-09-21T05:33:06;98972.91;;;3.25;100.00
74422;BME280;62856;51.446;8.360;2022-09-21T05:35:29;98967.34;;;3.26;100.00
74422;BME280;62856;51.446;8.360;2022-09-21T05:38:27;98973.66;;;3.32;100.00
74422;BME280;62856;51.446;8.360;2022-09-21T05:40:53;98973.66;;;3.32;100.00
74422;BME280;62856;51.446;8.360;2022-09-21T05:43:18;98980.44;;;3.28;100.00
74422;BME280;62856;51.446;8.360;2022-09-21T05:45:46;98982.50;;;3.26;100.00
74422;BME280;62856;51.446;8.360;2022-09-21T05:48:15;98987.44;;;3.29;100.00
74422;BME280;62856;51.446;8.360;2022-09-21T05:50:48;98979.59;;;3.34;100.00
74422;BME280;62856;51.446;8.360;2022-09-21T05:57:17;98984.38;;;3.56;100.00
74422;BME280;62856;51.446;8.360;2022-09-21T06:02:34;98986.44;;;3.79;100.00
74422;BME280;62856;51.446;8.360;2022-09-21T06:05:06;98977.63;;;4.03;100.00
74422;BME280;62856;51.446;8.360;2022-09-21T06:07:34;98973.34;;;4.20;100.00
74422;BME280;62856;51.446;8.360;2022-09-21T06:09:59;98995.78;;;4.37;100.00
74422;BME280;62856;51.446;8.360;2022-09-21T06:12:25;98990.81;;;4.41;100.00
74422;BME280;62856;51.446;8.360;2022-09-21T06:14:50;98981.19;;;4.58;100.00
74422;BME280;62856;51.446;8.360;2022-09-21T06:17:15;98991.91;;;4.69;100.00
74422;BME280;62856;51.446;8.360;2022-09-21T06:22:29;98999.78;;;4.82;100.00
74422;BME280;62856;51.446;8.360;2022-09-21T06:25:24;98992.34;;;5.02;100.00
74422;BME280;62856;51.446;8.360;2022-09-21T06:28:26;98992.41;;;5.14;100.00
74422;BME280;62856;51.446;8.360;2022-09-21T06:31:10;98988.38;;;5.23;100.00
74422;BME280;62856;51.446;8.360;2022-09-21T06:34:28;98987.69;;;5.28;100.00
74422;BME280;62856;51.446;8.360;2022-09-21T06:37:29;98989.34;;;5.29;100.00
74422;BME280;62856;51.446;8.360;2022-09-21T06:43:13;98983.16;;;5.58;100.00
74422;BME280;62856;51.446;8.360;2022-09-21T06:49:36;98980.41;;;5.76;100.00
74422;BME280;62856;51.446;8.360;2022-09-21T07:07:35;98973.56;;;6.61;100.00
74422;BME280;62856;51.446;8.360;2022-09-21T07:10:14;98984.84;;;6.74;100.00
74422;BME280;62856;51.446;8.360;2022-09-21T07:12:43;98967.94;;;6.85;100.00
74422;BME280;62856;51.446;8.360;2022-09-21T07:15:17;98975.00;;;6.91;100.00
74422;BME280;62856;51.446;8.360;2022-09-21T07:17:52;98978.50;;;7.03;100.00
74422;BME280;62856;51.446;8.360;2022-09-21T07:20:29;98972.97;;;7.10;100.00
74422;BME280;62856;51.446;8.360;2022-09-21T07:23:16;98980.22;;;7.38;100.00
74422;BME280;62856;51.446;8.360;2022-09-21T07:25:44;98979.59;;;7.47;100.00
74422;BME280;62856;51.446;8.360;2022-09-21T07:28:18;98987.66;;;7.64;100.00
74422;BME280;62856;51.446;8.360;2022-09-21T07:30:44;98981.97;;;7.77;100.00
74422;BME280;62856;51.446;8.360;2022-09-21T07:33:15;98984.28;;;8.01;100.00
74422;BME280;62856;51.446;8.360;2022-09-21T07:35:54;98974.13;;;8.03;100.00
74422;BME280;62856;51.446;8.360;2022-09-21T07:38:25;98973.69;;;8.11;100.00
74422;BME280;62856;51.446;8.360;2022-09-21T07:40:52;98982.84;;;8.27;100.00
74422;BME280;62856;51.446;8.360;2022-09-21T07:43:17;98973.06;;;8.38;100.00
74422;BME280;62856;51.446;8.360;2022-09-21T07:45:51;98979.66;;;8.68;100.00
74422;BME280;62856;51.446;8.360;2022-09-21T07:48:17;98984.38;;;8.99;100.00
74422;BME280;62856;51.446;8.360;2022-09-21T07:50:43;98969.84;;;9.00;100.00
74422;BME280;62856;51.446;8.360;2022-09-21T07:53:19;98969.66;;;9.07;100.00
74422;BME280;62856;51.446;8.360;2022-09-21T07:55:47;98974.88;;;9.18;100.00
74422;BME280;62856;51.446;8.360;2022-09-21T07:58:15;98993.81;;;9.50;100.00
74422;BME280;62856;51.446;8.360;2022-09-21T08:01:20;98979.59;;;9.55;100.00
74422;BME280;62856;51.446;8.360;2022-09-21T08:03:55;98982.16;;;9.71;100.00
74422;BME280;62856;51.446;8.360;2022-09-21T08:06:28;98978.47;;;9.77;100.00
74422;BME280;62856;51.446;8.360;2022-09-21T08:08:58;98976.47;;;9.68;100.00
74422;BME280;62856;51.446;8.360;2022-09-21T08:11:25;98972.22;;;9.72;100.00
74422;BME280;62856;51.446;8.360;2022-09-21T08:14:01;98977.69;;;9.82;100.00
74422;BME280;62856;51.446;8.360;2022-09-21T08:19:08;98967.97;;;10.49;100.00
74422;BME280;62856;51.446;8.360;2022-09-21T08:21:33;98972.34;;;10.55;100.00
74422;BME280;62856;51.446;8.360;2022-09-21T08:24:04;98979.91;;;10.58;100.00
74422;BME280;62856;51.446;8.360;2022-09-21T08:26:30;98972.03;;;10.47;99.77
74422;BME280;62856;51.446;8.360;2022-09-21T08:28:58;98972.19;;;10.82;99.06
74422;BME280;62856;51.446;8.360;2022-09-21T08:31:26;98974.56;;;10.63;94.81
74422;BME280;62856;51.446;8.360;2022-09-21T08:36:27;98982.75;;;10.83;93.25
74422;BME280;62856;51.446;8.360;2022-09-21T08:38:53;98975.50;;;10.94;100.00
74422;BME280;62856;51.446;8.360;2022-09-21T08:41:42;98980.28;;;10.82;90.34
74422;BME280;62856;51.446;8.360;2022-09-21T08:44:16;98985.78;;;10.97;96.51
74422;BME280;62856;51.446;8.360;2022-09-21T08:46:45;98984.47;;;11.09;95.52
74422;BME280;62856;51.446;8.360;2022-09-21T08:49:18;98979.34;;;11.13;96.65
74422;BME280;62856;51.446;8.360;2022-09-21T08:51:51;98986.75;;;11.38;96.96
74422;BME280;62856;51.446;8.360;2022-09-21T08:56:54;98981.91;;;11.55;85.62
74422;BME280;62856;51.446;8.360;2022-09-21T08:59:23;98975.34;;;11.20;86.12
74422;BME280;62856;51.446;8.360;2022-09-21T09:02:02;98983.50;;;11.36;89.24
74422;BME280;62856;51.446;8.360;2022-09-21T09:07:26;98985.41;;;11.45;89.48
74422;BME280;62856;51.446;8.360;2022-09-21T09:10:05;98980.56;;;11.62;88.74
74422;BME280;62856;51.446;8.360;2022-09-21T09:20:45;98981.69;;;11.71;91.51
74422;BME280;62856;51.446;8.360;2022-09-21T09:23:40;98989.03;;;11.96;89.22
74422;BME280;62856;51.446;8.360;2022-09-21T09:26:19;98990.91;;;12.25;87.42
74422;BME280;62856;51.446;8.360;2022-09-21T09:28:50;98994.97;;;12.23;82.96
74422;BME280;62856;51.446;8.360;2022-09-21T09:31:35;98986.59;;;12.24;89.99
74422;BME280;62856;51.446;8.360;2022-09-21T09:36:49;98987.94;;;12.17;82.72
74422;BME280;62856;51.446;8.360;2022-09-21T09:39:16;98985.25;;;12.17;88.78
74422;BME280;62856;51.446;8.360;2022-09-21T09:42:11;98985.47;;;12.61;83.89
74422;BME280;62856;51.446;8.360;2022-09-21T09:50:08;98977.59;;;12.69;87.08
74422;BME280;62856;51.446;8.360;2022-09-21T09:52:35;98978.91;;;12.87;84.67
74422;BME280;62856;51.446;8.360;2022-09-21T09:55:18;98977.06;;;12.72;83.04
74422;BME280;62856;51.446;8.360;2022-09-21T09:57:46;98965.72;;;12.65;84.65
74422;BME280;62856;51.446;8.360;2022-09-21T10:00:13;98972.72;;;12.71;76.70
74422;BME280;62856;51.446;8.360;2022-09-21T10:02:51;98969.75;;;12.68;78.03
74422;BME280;62856;51.446;8.360;2022-09-21T10:05:33;98976.75;;;12.79;79.10
74422;BME280;62856;51.446;8.360;2022-09-21T10:07:59;98966.78;;;12.74;77.22
74422;BME280;62856;51.446;8.360;2022-09-21T10:12:54;98974.81;;;12.89;84.29
74422;BME280;62856;51.446;8.360;2022-09-21T10:15:22;98974.78;;;13.09;79.45
74422;BME280;62856;51.446;8.360;2022-09-21T10:18:06;98969.06;;;13.21;73.89
74422;BME280;62856;51.446;8.360;2022-09-21T10:20:35;98965.97;;;13.43;74.11
74422;BME280;62856;51.446;8.360;2022-09-21T10:23:04;98974.53;;;13.60;73.59
74422;BME280;62856;51.446;8.360;2022-09-21T10:25:29;98973.88;;;13.78;77.44
74422;BME280;62856;51.446;8.360;2022-09-21T10:27:55;98968.47;;;13.73;72.48
74422;BME280;62856;51.446;8.360;2022-09-21T10:30:36;98965.47;;;13.79;77.27
74422;BME280;62856;51.446;8.360;2022-09-21T10:33:16;98958.50;;;14.02;72.10
74422;BME280;62856;51.446;8.360;2022-09-21T10:35:51;98963.72;;;13.93;69.99
74422;BME280;62856;51.446;8.360;2022-09-21T10:38:25;98952.84;;;13.98;76.74
74422;BME280;62856;51.446;8.360;2022-09-21T10:40:55;98956.25;;;14.14;73.58
74422;BME280;62856;51.446;8.360;2022-09-21T10:43:30;98947.00;;;14.15;70.68
74422;BME280;62856;51.446;8.360;2022-09-21T10:45:58;98956.41;;;14.27;72.88
74422;BME280;62856;51.446;8.360;2022-09-21T10:48:25;98951.03;;;14.51;69.02
74422;BME280;62856;51.446;8.360;2022-09-21T10:50:52;98953.34;;;14.63;69.92
74422;BME280;62856;51.446;8.360;2022-09-21T10:56:00;98951.44;;;14.40;71.74
74422;BME280;62856;51.446;8.360;2022-09-21T10:58:27;98941.09;;;14.42;70.80
74422;BME280;62856;51.446;8.360;2022-09-21T11:00:54;98942.75;;;14.09;70.54
74422;BME280;62856;51.446;8.360;2022-09-21T11:05:58;98946.63;;;13.93;73.50
74422;BME280;62856;51.446;8.360;2022-09-21T11:08:33;98946.25;;;13.76;73.74
74422;BME280;62856;51.446;8.360;2022-09-21T11:13:43;98949.81;;;13.66;76.46
74422;BME280;62856;51.446;8.360;2022-09-21T11:18:53;98952.88;;;13.55;74.47
74422;BME280;62856;51.446;8.360;2022-09-21T11:21:29;98954.50;;;13.94;78.16
74422;BME280;62856;51.446;8.360;2022-09-21T11:30:02;98948.06;;;14.76;66.03
74422;BME280;62856;51.446;8.360;2022-09-21T11:32:45;98939.66;;;14.96;65.58
74422;BME280;62856;51.446;8.360;2022-09-21T11:35:29;98945.34;;;15.18;64.82
74422;BME280;62856;51.446;8.360;2022-09-21T11:38:11;98934.75;;;15.41;63.97
74422;BME280;62856;51.446;8.360;2022-09-21T11:46:16;98933.09;;;15.63;59.83
74422;BME280;62856;51.446;8.360;2022-09-21T11:52:06;98925.50;;;15.79;64.05
74422;BME280;62856;51.446;8.360;2022-09-21T12:02:53;98923.50;;;16.89;55.96
74422;BME280;62856;51.446;8.360;2022-09-21T12:08:38;98918.50;;;15.73;58.71
74422;BME280;62856;51.446;8.360;2022-09-21T12:11:43;98921.16;;;14.98;61.33
74422;BME280;62856;51.446;8.360;2022-09-21T12:14:14;98919.19;;;14.62;62.20
74422;BME280;62856;51.446;8.360;2022-09-21T12:19:45;98908.47;;;14.94;65.79
74422;BME280;62856;51.446;8.360;2022-09-21T12:24:47;98916.69;;;17.99;53.78
74422;BME280;62856;51.446;8.360;2022-09-21T12:27:28;98896.94;;;19.50;51.31
74422;BME280;62856;51.446;8.360;2022-09-21T12:35:28;98896.88;;;21.11;46.51
74422;BME280;62856;51.446;8.360;2022-09-21T12:38:28;98897.38;;;21.75;44.41
74422;BME280;62856;51.446;8.360;2022-09-21T12:43:58;98903.88;;;21.50;42.36
74422;BME280;62856;51.446;8.360;2022-09-21T12:46:32;98898.03;;;20.72;42.93
74422;BME280;62856;51.446;8.360;2022-09-21T12:49:00;98894.47;;;19.23;46.44
74422;BME280;62856;51.446;8.360;2022-09-21T12:51:33;98906.91;;;17.76;49.25
74422;BME280;62856;51.446;8.360;2022-09-21T12:54:20;98893.75;;;17.42;53.35
74422;BME280;62856;51.446;8.360;2022-09-21T12:57:03;98897.41;;;16.88;54.51
74422;BME280;62856;51.446;8.360;2022-09-21T12:59:46;98893.34;;;16.59;56.01
74422;BME280;62856;51.446;8.360;2022-09-21T13:02:22;98899.66;;;16.41;57.50
74422;BME280;62856;51.446;8.360;2022-09-21T13:08:05;98887.44;;;15.79;57.91
74422;BME280;62856;51.446;8.360;2022-09-21T13:10:59;98896.53;;;15.13;59.83
74422;BME280;62856;51.446;8.360;2022-09-21T13:13:34;98882.28;;;15.03;57.96
74422;BME280;62856;51.446;8.360;2022-09-21T13:16:01;98885.50;;;14.86;61.08
74422;BME280;62856;51.446;8.360;2022-09-21T13:18:31;98879.88;;;15.01;61.98
74422;BME280;62856;51.446;8.360;2022-09-21T13:20:59;98877.97;;;15.20;62.87
74422;BME280;62856;51.446;8.360;2022-09-21T13:23:37;98878.84;;;15.72;59.06
74422;BME280;62856;51.446;8.360;2022-09-21T13:26:30;98880.69;;;17.30;54.11
74422;BME280;62856;51.446;8.360;2022-09-21T13:32:06;98871.19;;;19.68;53.80
74422;BME280;62856;51.446;8.360;2022-09-21T13:34:36;98871.94;;;19.17;48.43
74422;BME280;62856;51.446;8.360;2022-09-21T13:47:53;98859.03;;;20.67;46.83
74422;BME280;62856;51.446;8.360;2022-09-21T13:50:41;98858.66;;;20.39;45.59
74422;BME280;62856;51.446;8.360;2022-09-21T13:55:49;98855.56;;;19.34;48.73
74422;BME280;62856;51.446;8.360;2022-09-21T13:58:30;98861.44;;;18.15;50.63
74422;BME280;62856;51.446;8.360;2022-09-21T14:01:05;98854.72;;;17.91;51.11
74422;BME280;62856;51.446;8.360;2022-09-21T14:03:37;98849.97;;;18.75;48.63
74422;BME280;62856;51.446;8.360;2022-09-21T14:06:27;98847.06;;;19.36;50.72
74422;BME280;62856;51.446;8.360;2022-09-21T14:09:06;98846.91;;;19.33;44.00
74422;BME280;62856;51.446;8.360;2022-09-21T14:11:36;98842.84;;;19.81;48.47
74422;BME280;62856;51.446;8.360;2022-09-21T14:14:21;98850.03;;;20.11;44.65
74422;BME280;62856;51.446;8.360;2022-09-21T14:16:57;98839.88;;;20.29;45.82
74422;BME280;62856;51.446;8.360;2022-09-21T14:24:46;98832.00;;;20.19;45.27
74422;BME280;62856;51.446;8.360;2022-09-21T14:27:40;98834.50;;;20.41;45.91
74422;BME280;62856;51.446;8.360;2022-09-21T14:30:18;98838.28;;;20.57;45.64
74422;BME280;62856;51.446;8.360;2022-09-21T14:35:29;98835.75;;;19.97;44.59
74422;BME280;62856;51.446;8.360;2022-09-21T14:37:58;98824.19;;;18.98;48.46
74422;BME280;62856;51.446;8.360;2022-09-21T14:40:28;98828.47;;;18.03;48.24
74422;BME280;62856;51.446;8.360;2022-09-21T14:42:58;98836.19;;;17.21;50.76
74422;BME280;62856;51.446;8.360;2022-09-21T14:57:06;98838.28;;;16.34;57.00
74422;BME280;62856;51.446;8.360;2022-09-21T14:59:54;98832.25;;;16.78;55.10
74422;BME280;62856;51.446;8.360;2022-09-21T15:02:25;98830.63;;;16.77;57.25
74422;BME280;62856;51.446;8.360;2022-09-21T15:04:59;98832.25;;;16.65;56.73
74422;BME280;62856;51.446;8.360;2022-09-21T15:07:43;98842.94;;;16.34;55.41
74422;BME280;62856;51.446;8.360;2022-09-21T15:10:31;98829.03;;;16.49;55.93
74422;BME280;62856;51.446;8.360;2022-09-21T15:21:48;98825.56;;;16.03;58.20
74422;BME280;62856;51.446;8.360;2022-09-21T15:24:32;98828.78;;;15.73;60.47
74422;BME280;62856;51.446;8.360;2022-09-21T15:27:10;98825.31;;;15.35;61.72
74422;BME280;62856;51.446;8.360;2022-09-21T15:29:47;98831.22;;;15.23;60.64
74422;BME280;62856;51.446;8.360;2022-09-21T15:32:41;98833.34;;;15.08;60.33
74422;BME280;62856;51.446;8.360;2022-09-21T15:35:22;98825.56;;;15.01;61.37
74422;BME280;62856;51.446;8.360;2022-09-21T15:37:48;98828.19;;;15.06;60.56
74422;BME280;62856;51.446;8.360;2022-09-21T15:42:57;98816.97;;;14.94;60.45
74422;BME280;62856;51.446;8.360;2022-09-21T15:48:22;98817.09;;;14.84;61.35
74422;BME280;62856;51.446;8.360;2022-09-21T15:51:16;98812.63;;;14.75;62.70
74422;BME280;62856;51.446;8.360;2022-09-21T15:53:49;98823.63;;;14.65;61.47
74422;BME280;62856;51.446;8.360;2022-09-21T15:56:25;98812.63;;;14.56;62.45
74422;BME280;62856;51.446;8.360;2022-09-21T15:59:01;98817.06;;;14.47;60.69
74422;BME280;62856;51.446;8.360;2022-09-21T16:01:42;98814.38;;;14.42;64.86
74422;BME280;62856;51.446;8.360;2022-09-21T16:04:16;98812.34;;;14.34;64.18
74422;BME280;62856;51.446;8.360;2022-09-21T16:06:45;98817.53;;;14.30;64.96
74422;BME280;62856;51.446;8.360;2022-09-21T16:11:49;98815.78;;;14.11;62.71
74422;BME280;62856;51.446;8.360;2022-09-21T16:14:16;98811.34;;;13.96;63.81
74422;BME280;62856;51.446;8.360;2022-09-21T16:19:39;98816.59;;;13.88;67.68
74422;BME280;62856;51.446;8.360;2022-09-21T16:22:13;98811.22;;;13.83;67.93
74422;BME280;62856;51.446;8.360;2022-09-21T16:24:49;98819.72;;;13.71;65.11
74422;BME280;62856;51.446;8.360;2022-09-21T16:27:17;98822.78;;;13.65;65.14
74422;BME280;62856;51.446;8.360;2022-09-21T16:29:44;98814.69;;;13.60;64.81
74422;BME280;62856;51.446;8.360;2022-09-21T16:34:41;98814.88;;;13.40;66.03
74422;BME280;62856;51.446;8.360;2022-09-21T16:39:48;98817.16;;;13.22;67.73
74422;BME280;62856;51.446;8.360;2022-09-21T16:42:14;98826.69;;;13.15;65.44
74422;BME280;62856;51.446;8.360;2022-09-21T16:44:40;98822.13;;;13.10;67.79
74422;BME280;62856;51.446;8.360;2022-09-21T16:47:14;98825.38;;;13.07;68.20
74422;BME280;62856;51.446;8.360;2022-09-21T16:49:41;98827.59;;;12.95;66.74
74422;BME280;62856;51.446;8.360;2022-09-21T16:52:07;98830.88;;;12.87;68.44